createdAt,value
2018-11-25T00:00:11.472Z,1008.25
2018-11-25T00:01:11.432Z,1008.27
2018-11-25T00:02:11.438Z,1008.24
2018-11-25T00:03:11.423Z,1008.23
2018-11-25T00:04:11.409Z,1008.22
2018-11-25T00:05:11.372Z,1008.23
2018-11-25T00:06:11.374Z,1008.24
2018-11-25T00:07:11.351Z,1008.20
2018-11-25T00:08:11.284Z,1008.23
2018-11-25T00:09:11.262Z,1008.20
2018-11-25T00:10:11.241Z,1008.21
2018-11-25T00:11:11.213Z,1008.19
2018-11-25T00:12:11.190Z,1008.22
2018-11-25T00:13:11.182Z,1008.24
2018-11-25T00:14:11.142Z,1008.23
2018-11-25T00:15:11.124Z,1008.24
2018-11-25T00:16:11.099Z,1008.23
2018-11-25T00:17:11.078Z,1008.23
2018-11-25T00:18:11.074Z,1008.21
2018-11-25T00:19:11.038Z,1008.19
2018-11-25T00:20:11.010Z,1008.17
2018-11-25T00:21:10.999Z,1008.22
2018-11-25T00:22:10.977Z,1008.23
2018-11-25T00:23:10.975Z,1008.16
2018-11-25T00:24:10.933Z,1008.23
2018-11-25T00:25:10.905Z,1008.19
2018-11-25T00:26:10.888Z,1008.16
2018-11-25T00:27:10.862Z,1008.19
2018-11-25T00:28:10.847Z,1008.20
2018-11-25T00:29:10.842Z,1008.19
2018-11-25T00:30:10.794Z,1008.22
2018-11-25T00:31:10.772Z,1008.22
2018-11-25T00:32:10.752Z,1008.24
2018-11-25T00:33:10.728Z,1008.29
2018-11-25T00:34:10.728Z,1008.26
2018-11-25T00:35:10.685Z,1008.27
2018-11-25T00:36:10.667Z,1008.25
2018-11-25T00:37:10.644Z,1008.23
2018-11-25T00:38:10.625Z,1008.24
2018-11-25T00:39:10.596Z,1008.23
2018-11-25T00:40:11.585Z,1008.22
2018-11-25T00:41:10.556Z,1008.22
2018-11-25T00:42:10.538Z,1008.22
2018-11-25T00:43:10.512Z,1008.26
2018-11-25T00:44:10.499Z,1008.23
2018-11-25T00:45:10.478Z,1008.21
2018-11-25T00:46:10.451Z,1008.22
2018-11-25T00:47:10.433Z,1008.15
2018-11-25T00:48:10.403Z,1008.15
2018-11-25T00:49:10.382Z,1008.16
2018-11-25T00:50:10.384Z,1008.14
2018-11-25T00:51:10.337Z,1008.16
2018-11-25T00:52:10.314Z,1008.13
2018-11-25T00:53:10.290Z,1008.12
2018-11-25T00:54:10.282Z,1008.14
2018-11-25T00:55:10.247Z,1008.12
2018-11-25T00:56:10.245Z,1008.13
2018-11-25T00:57:10.212Z,1008.14
2018-11-25T00:58:10.206Z,1008.10
2018-11-25T00:59:10.161Z,1008.07
2018-11-25T01:00:10.140Z,1008.05
2018-11-25T01:01:10.141Z,1008.05
2018-11-25T01:02:10.099Z,1008.01
2018-11-25T01:03:10.084Z,1008.01
2018-11-25T01:04:10.063Z,1008.02
2018-11-25T01:05:10.037Z,1008.02
2018-11-25T01:06:10.015Z,1008.04
2018-11-25T01:07:10.004Z,1008.03
2018-11-25T01:08:09.970Z,1008.02
2018-11-25T01:09:09.944Z,1008.01
2018-11-25T01:10:09.915Z,1008.01
2018-11-25T01:11:09.915Z,1007.99
2018-11-25T01:12:09.890Z,1007.98
2018-11-25T01:13:09.856Z,1007.97
2018-11-25T01:14:09.830Z,1007.93
2018-11-25T01:15:09.818Z,1008.00
2018-11-25T01:16:09.804Z,1008.01
2018-11-25T01:17:09.767Z,1008.01
2018-11-25T01:18:09.753Z,1008.00
2018-11-25T01:19:09.755Z,1007.99
2018-11-25T01:20:09.722Z,1007.99
2018-11-25T01:21:09.683Z,1007.97
2018-11-25T01:22:09.665Z,1007.96
2018-11-25T01:23:09.703Z,1007.97
2018-11-25T01:24:09.613Z,1007.97
2018-11-25T01:25:09.587Z,1007.95
2018-11-25T01:26:09.570Z,1007.96
2018-11-25T01:27:09.548Z,1007.97
2018-11-25T01:28:09.540Z,1007.95
2018-11-25T01:29:09.518Z,1007.93
2018-11-25T01:30:09.483Z,1007.96
2018-11-25T01:31:09.468Z,1007.96
2018-11-25T01:32:09.463Z,1007.94
2018-11-25T01:33:09.436Z,1007.92
2018-11-25T01:34:09.392Z,1007.97
2018-11-25T01:35:09.378Z,1007.97
2018-11-25T01:36:09.354Z,1007.98
2018-11-25T01:37:09.331Z,1007.96
2018-11-25T01:38:09.328Z,1008.01
2018-11-25T01:39:09.287Z,1007.99
2018-11-25T01:40:09.279Z,1008.03
2018-11-25T01:41:09.253Z,1008.04
2018-11-25T01:42:09.222Z,1008.01
2018-11-25T01:43:09.202Z,1007.99
2018-11-25T01:44:09.203Z,1007.90
2018-11-25T01:45:09.154Z,1007.91
2018-11-25T01:46:09.134Z,1007.89
2018-11-25T01:47:09.114Z,1007.90
2018-11-25T01:48:09.091Z,1007.90
2018-11-25T01:49:09.088Z,1007.87
2018-11-25T01:50:09.045Z,1007.91
2018-11-25T01:51:09.028Z,1007.87
2018-11-25T01:52:09.059Z,1007.85
2018-11-25T01:53:08.983Z,1007.88
2018-11-25T01:54:08.977Z,1007.91
2018-11-25T01:55:08.938Z,1007.91
2018-11-25T01:56:08.915Z,1007.92
2018-11-25T01:57:08.895Z,1007.92
2018-11-25T01:58:08.872Z,1007.98
2018-11-25T01:59:08.851Z,1007.94
2018-11-25T02:00:08.841Z,1007.93
2018-11-25T02:01:08.804Z,1007.95
2018-11-25T02:02:08.785Z,1007.96
2018-11-25T02:03:08.761Z,1007.94
2018-11-25T02:04:08.739Z,1007.91
2018-11-25T02:05:08.745Z,1007.95
2018-11-25T02:06:08.715Z,1007.90
2018-11-25T02:07:08.679Z,1007.92
2018-11-25T02:08:08.653Z,1007.93
2018-11-25T02:09:08.634Z,1007.95
2018-11-25T02:10:08.627Z,1007.94
2018-11-25T02:11:08.592Z,1007.93
2018-11-25T02:12:08.565Z,1007.91
2018-11-25T02:13:08.547Z,1007.96
2018-11-25T02:14:08.524Z,1007.94
2018-11-25T02:15:08.524Z,1007.92
2018-11-25T02:16:08.493Z,1007.96
2018-11-25T02:17:08.461Z,1007.96
2018-11-25T02:18:08.438Z,1007.94
2018-11-25T02:19:08.415Z,1007.96
2018-11-25T02:20:08.389Z,1007.92
2018-11-25T02:21:08.387Z,1007.91
2018-11-25T02:22:08.366Z,1007.86
2018-11-25T02:23:08.327Z,1007.87
2018-11-25T02:24:08.312Z,1007.85
2018-11-25T02:25:08.284Z,1007.88
2018-11-25T02:26:08.281Z,1007.81
2018-11-25T02:27:08.239Z,1007.84
2018-11-25T02:28:08.224Z,1007.80
2018-11-25T02:29:08.192Z,1007.82
2018-11-25T02:30:08.170Z,1007.82
2018-11-25T02:31:08.154Z,1007.83
2018-11-25T02:32:08.151Z,1007.82
2018-11-25T02:33:08.109Z,1007.80
2018-11-25T02:34:08.108Z,1007.79
2018-11-25T02:35:08.072Z,1007.77
2018-11-25T02:36:08.046Z,1007.79
2018-11-25T02:37:08.023Z,1007.74
2018-11-25T02:38:08.008Z,1007.76
2018-11-25T02:39:07.984Z,1007.73
2018-11-25T02:40:07.989Z,1007.76
2018-11-25T02:41:07.933Z,1007.73
2018-11-25T02:42:07.940Z,1007.73
2018-11-25T02:43:07.889Z,1007.69
2018-11-25T02:44:07.873Z,1007.70
2018-11-25T02:45:07.847Z,1007.68
2018-11-25T02:46:07.827Z,1007.75
2018-11-25T02:47:07.822Z,1007.70
2018-11-25T02:48:07.783Z,1007.71
2018-11-25T02:49:07.760Z,1007.71
2018-11-25T02:50:07.736Z,1007.71
2018-11-25T02:51:07.733Z,1007.68
2018-11-25T02:52:07.695Z,1007.70
2018-11-25T02:53:07.672Z,1007.64
2018-11-25T02:54:07.672Z,1007.66
2018-11-25T02:55:07.629Z,1007.64
2018-11-25T02:56:07.606Z,1007.67
2018-11-25T02:57:07.586Z,1007.70
2018-11-25T02:58:07.562Z,1007.73
2018-11-25T02:59:07.540Z,1007.71
2018-11-25T03:00:07.538Z,1007.70
2018-11-25T03:01:07.499Z,1007.69
2018-11-25T03:02:07.475Z,1007.67
2018-11-25T03:03:07.458Z,1007.67
2018-11-25T03:04:07.447Z,1007.67
2018-11-25T03:05:07.411Z,1007.66
2018-11-25T03:06:07.386Z,1007.70
2018-11-25T03:07:07.389Z,1007.69
2018-11-25T03:08:07.339Z,1007.66
2018-11-25T03:09:07.341Z,1007.66
2018-11-25T03:10:07.312Z,1007.60
2018-11-25T03:11:07.289Z,1007.60
2018-11-25T03:12:07.258Z,1007.60
2018-11-25T03:13:07.242Z,1007.59
2018-11-25T03:14:07.231Z,1007.65
2018-11-25T03:15:07.222Z,1007.70
2018-11-25T03:16:07.184Z,1007.68
2018-11-25T03:17:07.147Z,1007.72
2018-11-25T03:18:07.130Z,1007.75
2018-11-25T03:19:07.107Z,1007.75
2018-11-25T03:20:07.083Z,1007.79
2018-11-25T03:21:07.091Z,1007.75
2018-11-25T03:22:07.056Z,1007.75
2018-11-25T03:23:07.027Z,1007.75
2018-11-25T03:24:07.001Z,1007.77
2018-11-25T03:25:06.967Z,1007.73
2018-11-25T03:26:06.982Z,1007.70
2018-11-25T03:27:06.934Z,1007.70
2018-11-25T03:28:06.910Z,1007.69
2018-11-25T03:29:06.883Z,1007.68
2018-11-25T03:30:06.872Z,1007.70
2018-11-25T03:31:06.842Z,1007.71
2018-11-25T03:32:06.839Z,1007.73
2018-11-25T03:33:06.798Z,1007.75
2018-11-25T03:34:06.799Z,1007.81
2018-11-25T03:35:06.754Z,1007.79
2018-11-25T03:36:06.735Z,1007.79
2018-11-25T03:37:06.757Z,1007.79
2018-11-25T03:38:06.688Z,1007.82
2018-11-25T03:39:06.671Z,1007.82
2018-11-25T03:40:06.645Z,1007.79
2018-11-25T03:41:06.628Z,1007.81
2018-11-25T03:42:06.618Z,1007.85
2018-11-25T03:43:06.597Z,1007.83
2018-11-25T03:44:06.564Z,1007.84
2018-11-25T03:45:06.541Z,1007.83
2018-11-25T03:46:06.516Z,1007.83
2018-11-25T03:47:06.495Z,1007.85
2018-11-25T03:48:06.479Z,1007.84
2018-11-25T03:49:06.460Z,1007.83
2018-11-25T03:50:06.444Z,1007.79
2018-11-25T03:51:06.406Z,1007.79
2018-11-25T03:52:06.382Z,1007.79
2018-11-25T03:53:06.361Z,1007.78
2018-11-25T03:54:06.361Z,1007.79
2018-11-25T03:55:06.319Z,1007.79
2018-11-25T03:56:06.292Z,1007.82
2018-11-25T03:57:06.270Z,1007.82
2018-11-25T03:58:06.252Z,1007.82
2018-11-25T03:59:06.260Z,1007.84
2018-11-25T04:00:06.205Z,1007.81
2018-11-25T04:01:06.186Z,1007.81
2018-11-25T04:02:06.162Z,1007.82
2018-11-25T04:03:06.148Z,1007.81
2018-11-25T04:04:06.138Z,1007.85
2018-11-25T04:05:06.106Z,1007.88
2018-11-25T04:06:06.076Z,1007.82
2018-11-25T04:07:06.053Z,1007.79
2018-11-25T04:08:06.032Z,1007.84
2018-11-25T04:09:06.034Z,1007.84
2018-11-25T04:10:06.009Z,1007.84
2018-11-25T04:11:05.971Z,1007.79
2018-11-25T04:12:05.950Z,1007.79
2018-11-25T04:13:05.967Z,1007.77
2018-11-25T04:14:05.902Z,1007.79
2018-11-25T04:15:05.907Z,1007.76
2018-11-25T04:16:05.859Z,1007.77
2018-11-25T04:17:05.857Z,1007.74
2018-11-25T04:18:05.817Z,1007.79
2018-11-25T04:19:05.796Z,1007.78
2018-11-25T04:20:05.788Z,1007.76
2018-11-25T04:21:05.770Z,1007.71
2018-11-25T04:22:05.728Z,1007.72
2018-11-25T04:23:05.710Z,1007.72
2018-11-25T04:24:05.684Z,1007.74
2018-11-25T04:25:05.663Z,1007.72
2018-11-25T04:26:05.661Z,1007.70
2018-11-25T04:27:05.621Z,1007.75
2018-11-25T04:28:05.602Z,1007.75
2018-11-25T04:29:05.583Z,1007.74
2018-11-25T04:30:05.561Z,1007.75
2018-11-25T04:31:05.538Z,1007.73
2018-11-25T04:32:05.533Z,1007.75
2018-11-25T04:33:05.492Z,1007.76
2018-11-25T04:34:05.471Z,1007.79
2018-11-25T04:35:05.446Z,1007.82
2018-11-25T04:36:05.423Z,1007.80
2018-11-25T04:37:05.404Z,1007.79
2018-11-25T04:38:05.401Z,1007.83
2018-11-25T04:39:05.360Z,1007.78
2018-11-25T04:40:05.340Z,1007.76
2018-11-25T04:41:05.334Z,1007.75
2018-11-25T04:42:05.299Z,1007.77
2018-11-25T04:43:05.292Z,1007.73
2018-11-25T04:44:05.254Z,1007.74
2018-11-25T04:45:05.230Z,1007.74
2018-11-25T04:46:05.209Z,1007.73
2018-11-25T04:47:05.191Z,1007.73
2018-11-25T04:48:05.179Z,1007.76
2018-11-25T04:49:05.152Z,1007.72
2018-11-25T04:50:05.125Z,1007.72
2018-11-25T04:51:05.099Z,1007.74
2018-11-25T04:52:05.078Z,1007.73
2018-11-25T04:53:05.090Z,1007.70
2018-11-25T04:54:05.034Z,1007.69
2018-11-25T04:55:05.013Z,1007.68
2018-11-25T04:56:04.989Z,1007.63
2018-11-25T04:57:04.969Z,1007.66
2018-11-25T04:58:04.975Z,1007.63
2018-11-25T04:59:04.925Z,1007.64
2018-11-25T05:00:04.900Z,1007.66
2018-11-25T05:01:04.882Z,1007.68
2018-11-25T05:02:04.858Z,1007.68
2018-11-25T05:03:04.839Z,1007.72
2018-11-25T05:04:04.836Z,1007.73
2018-11-25T05:05:04.801Z,1007.72
2018-11-25T05:06:04.772Z,1007.75
2018-11-25T05:07:04.748Z,1007.71
2018-11-25T05:08:04.751Z,1007.74
2018-11-25T05:09:04.706Z,1007.73
2018-11-25T05:10:04.693Z,1007.73
2018-11-25T05:11:04.666Z,1007.71
2018-11-25T05:12:04.645Z,1007.74
2018-11-25T05:13:04.618Z,1007.73
2018-11-25T05:14:04.613Z,1007.77
2018-11-25T05:15:04.577Z,1007.76
2018-11-25T05:16:04.564Z,1007.78
2018-11-25T05:17:04.534Z,1007.81
2018-11-25T05:18:04.518Z,1007.78
2018-11-25T05:19:04.515Z,1007.78
2018-11-25T05:20:04.471Z,1007.78
2018-11-25T05:21:04.465Z,1007.73
2018-11-25T05:22:04.428Z,1007.71
2018-11-25T05:23:04.406Z,1007.65
2018-11-25T05:24:04.406Z,1007.66
2018-11-25T05:25:04.359Z,1007.67
2018-11-25T05:26:04.358Z,1007.65
2018-11-25T05:27:04.316Z,1007.61
2018-11-25T05:28:04.294Z,1007.64
2018-11-25T05:29:04.267Z,1007.62
2018-11-25T05:30:04.267Z,1007.59
2018-11-25T05:31:04.229Z,1007.58
2018-11-25T05:32:04.207Z,1007.58
2018-11-25T05:33:04.184Z,1007.54
2018-11-25T05:34:04.161Z,1007.53
2018-11-25T05:35:04.139Z,1007.51
2018-11-25T05:36:04.136Z,1007.51
2018-11-25T05:37:04.095Z,1007.52
2018-11-25T05:38:04.077Z,1007.58
2018-11-25T05:39:04.060Z,1007.58
2018-11-25T05:40:04.027Z,1007.58
2018-11-25T05:41:04.028Z,1007.63
2018-11-25T05:42:03.992Z,1007.58
2018-11-25T05:43:03.961Z,1007.58
2018-11-25T05:44:03.947Z,1007.62
2018-11-25T05:45:03.922Z,1007.59
2018-11-25T05:46:03.915Z,1007.61
2018-11-25T05:47:03.875Z,1007.65
2018-11-25T05:48:03.857Z,1007.64
2018-11-25T05:49:03.835Z,1007.64
2018-11-25T05:50:03.807Z,1007.64
2018-11-25T05:51:03.802Z,1007.62
2018-11-25T05:52:03.764Z,1007.67
2018-11-25T05:53:03.750Z,1007.67
2018-11-25T05:54:03.724Z,1007.64
2018-11-25T05:55:03.703Z,1007.63
2018-11-25T05:56:03.722Z,1007.65
2018-11-25T05:57:03.658Z,1007.62
2018-11-25T05:58:03.638Z,1007.62
2018-11-25T05:59:03.614Z,1007.60
2018-11-25T06:00:03.591Z,1007.63
2018-11-25T06:01:03.592Z,1007.63
2018-11-25T06:02:03.553Z,1007.68
2018-11-25T06:03:03.545Z,1007.62
2018-11-25T06:04:03.515Z,1007.59
2018-11-25T06:05:03.480Z,1007.59
2018-11-25T06:06:03.459Z,1007.58
2018-11-25T06:07:03.436Z,1007.58
2018-11-25T06:08:03.441Z,1007.54
2018-11-25T06:09:03.401Z,1007.56
2018-11-25T06:10:03.380Z,1007.54
2018-11-25T06:11:03.359Z,1007.54
2018-11-25T06:12:03.331Z,1007.47
2018-11-25T06:13:03.359Z,1007.51
2018-11-25T06:14:03.300Z,1007.51
2018-11-25T06:15:03.277Z,1007.46
2018-11-25T06:16:03.265Z,1007.43
2018-11-25T06:17:03.235Z,1007.43
2018-11-25T06:18:03.199Z,1007.41
2018-11-25T06:19:03.201Z,1007.43
2018-11-25T06:20:03.162Z,1007.47
2018-11-25T06:21:03.185Z,1007.52
2018-11-25T06:22:03.118Z,1007.59
2018-11-25T06:23:03.099Z,1007.55
2018-11-25T06:24:03.073Z,1007.57
2018-11-25T06:25:03.078Z,1007.55
2018-11-25T06:26:03.029Z,1007.54
2018-11-25T06:27:03.008Z,1007.54
2018-11-25T06:28:02.991Z,1007.56
2018-11-25T06:29:02.956Z,1007.58
2018-11-25T06:30:02.972Z,1007.60
2018-11-25T06:31:02.914Z,1007.65
2018-11-25T06:32:02.894Z,1007.66
2018-11-25T06:33:02.873Z,1007.65
2018-11-25T06:34:02.852Z,1007.66
2018-11-25T06:35:02.832Z,1007.68
2018-11-25T06:36:02.826Z,1007.67
2018-11-25T06:37:02.790Z,1007.74
2018-11-25T06:38:02.774Z,1007.74
2018-11-25T06:39:02.747Z,1007.75
2018-11-25T06:40:02.720Z,1007.77
2018-11-25T06:41:02.711Z,1007.79
2018-11-25T06:42:02.675Z,1007.83
2018-11-25T06:43:02.653Z,1007.84
2018-11-25T06:44:02.630Z,1007.83
2018-11-25T06:45:02.626Z,1007.82
2018-11-25T06:46:02.629Z,1007.82
2018-11-25T06:47:02.721Z,1007.83
2018-11-25T06:48:02.544Z,1007.79
2018-11-25T06:49:02.531Z,1007.76
2018-11-25T06:50:02.507Z,1007.79
2018-11-25T06:51:02.494Z,1007.81
2018-11-25T06:52:02.463Z,1007.74
2018-11-25T06:53:02.437Z,1007.76
2018-11-25T06:54:02.448Z,1007.77
2018-11-25T06:55:02.389Z,1007.73
2018-11-25T06:56:02.383Z,1007.75
2018-11-25T06:57:02.353Z,1007.73
2018-11-25T06:58:02.345Z,1007.72
2018-11-25T06:59:02.321Z,1007.74
2018-11-25T07:00:02.289Z,1007.71
2018-11-25T07:01:02.270Z,1007.70
2018-11-25T07:02:02.244Z,1007.70
2018-11-25T07:03:02.238Z,1007.70
2018-11-25T07:04:02.196Z,1007.68
2018-11-25T07:05:02.180Z,1007.69
2018-11-25T07:06:02.157Z,1007.66
2018-11-25T07:07:02.135Z,1007.71
2018-11-25T07:08:02.129Z,1007.71
2018-11-25T07:09:02.091Z,1007.71
2018-11-25T07:10:02.067Z,1007.70
2018-11-25T07:11:02.170Z,1007.69
2018-11-25T07:12:02.028Z,1007.68
2018-11-25T07:13:02.021Z,1007.66
2018-11-25T07:14:01.989Z,1007.67
2018-11-25T07:15:01.961Z,1007.68
2018-11-25T07:16:01.945Z,1007.69
2018-11-25T07:17:01.912Z,1007.69
2018-11-25T07:18:01.909Z,1007.67
2018-11-25T07:19:01.872Z,1007.70
2018-11-25T07:20:01.854Z,1007.75
2018-11-25T07:21:01.842Z,1007.71
2018-11-25T07:22:01.807Z,1007.69
2018-11-25T07:23:02.632Z,1007.70
2018-11-25T07:24:01.766Z,1007.72
2018-11-25T07:25:01.750Z,1007.70
2018-11-25T07:26:01.732Z,1007.71
2018-11-25T07:27:01.702Z,1007.71
2018-11-25T07:28:17.656Z,1007.72
2018-11-25T07:29:01.672Z,1007.69
2018-11-25T07:30:07.633Z,1007.79
2018-11-25T07:31:01.608Z,1007.77
2018-11-25T07:32:01.588Z,1007.78
2018-11-25T07:33:01.588Z,1007.75
2018-11-25T07:34:01.547Z,1007.74
2018-11-25T07:35:01.529Z,1007.74
2018-11-25T07:36:01.514Z,1007.72
2018-11-25T07:37:01.484Z,1007.75
2018-11-25T07:38:01.458Z,1007.74
2018-11-25T07:39:01.438Z,1007.74
2018-11-25T07:40:01.433Z,1007.74
2018-11-25T07:41:01.410Z,1007.73
2018-11-25T07:42:01.379Z,1007.71
2018-11-25T07:43:01.350Z,1007.75
2018-11-25T07:44:01.331Z,1007.78
2018-11-25T07:45:01.305Z,1007.77
2018-11-25T07:46:02.506Z,1007.80
2018-11-25T07:47:01.409Z,1007.82
2018-11-25T07:48:01.244Z,1007.76
2018-11-25T07:49:01.219Z,1007.76
2018-11-25T07:50:01.211Z,1007.76
2018-11-25T07:51:01.189Z,1007.76
2018-11-25T07:52:01.164Z,1007.77
2018-11-25T07:53:01.131Z,1007.78
2018-11-25T07:54:01.120Z,1007.77
2018-11-25T07:55:01.100Z,1007.78
2018-11-25T07:56:01.082Z,1007.75
2018-11-25T07:57:01.059Z,1007.74
2018-11-25T07:58:01.032Z,1007.78
2018-11-25T07:59:01.022Z,1007.80
2018-11-25T08:00:00.985Z,1007.81
2018-11-25T08:01:00.986Z,1007.79
2018-11-25T08:02:00.936Z,1007.81
2018-11-25T08:03:00.910Z,1007.84
2018-11-25T08:04:00.913Z,1007.82
2018-11-25T08:05:00.871Z,1007.87
2018-11-25T08:06:00.851Z,1007.89
2018-11-25T08:07:00.854Z,1007.91
2018-11-25T08:08:00.799Z,1007.94
2018-11-25T08:09:00.797Z,1007.93
2018-11-25T08:10:00.766Z,1007.91
2018-11-25T08:11:00.746Z,1007.91
2018-11-25T08:12:00.743Z,1007.90
2018-11-25T08:13:00.707Z,1007.88
2018-11-25T08:14:00.685Z,1007.89
2018-11-25T08:15:00.669Z,1007.88
2018-11-25T08:16:00.641Z,1007.90
2018-11-25T08:17:00.612Z,1007.86
2018-11-25T08:18:00.610Z,1007.88
2018-11-25T08:19:00.620Z,1007.81
2018-11-25T08:20:00.543Z,1007.80
2018-11-25T08:21:00.542Z,1007.77
2018-11-25T08:22:00.500Z,1007.76
2018-11-25T08:23:00.483Z,1007.79
2018-11-25T08:24:00.466Z,1007.72
2018-11-25T08:25:00.458Z,1007.74
2018-11-25T08:26:00.418Z,1007.73
2018-11-25T08:27:00.394Z,1007.69
2018-11-25T08:28:00.392Z,1007.64
2018-11-25T08:29:00.358Z,1007.65
2018-11-25T08:30:00.337Z,1007.65
2018-11-25T08:31:00.310Z,1007.64
2018-11-25T08:32:00.284Z,1007.63
2018-11-25T08:33:00.290Z,1007.64
2018-11-25T08:34:00.250Z,1007.62
2018-11-25T08:35:00.224Z,1007.61
2018-11-25T08:36:00.200Z,1007.58
2018-11-25T08:37:00.177Z,1007.57
2018-11-25T08:38:00.182Z,1007.56
2018-11-25T08:39:02.127Z,1007.53
2018-11-25T08:40:00.146Z,1007.54
2018-11-25T08:41:00.095Z,1007.53
2018-11-25T08:42:00.077Z,1007.52
2018-11-25T08:43:00.067Z,1007.53
2018-11-25T08:44:00.038Z,1007.49
2018-11-25T08:45:00.007Z,1007.52
2018-11-25T08:46:00.020Z,1007.49
2018-11-25T08:46:59.962Z,1007.52
2018-11-25T08:47:59.946Z,1007.50
2018-11-25T08:48:59.920Z,1007.51
2018-11-25T08:49:59.902Z,1007.52
2018-11-25T08:50:59.900Z,1007.55
2018-11-25T08:51:59.861Z,1007.55
2018-11-25T08:52:59.838Z,1007.51
2018-11-25T08:53:59.818Z,1007.53
2018-11-25T08:54:59.802Z,1007.51
2018-11-25T08:55:59.785Z,1007.50
2018-11-25T08:56:59.760Z,1007.51
2018-11-25T08:57:59.723Z,1007.50
2018-11-25T08:58:59.710Z,1007.49
2018-11-25T08:59:59.679Z,1007.50
2018-11-25T09:00:59.677Z,1007.53
2018-11-25T09:01:59.637Z,1007.57
2018-11-25T09:02:59.624Z,1007.57
2018-11-25T09:03:59.595Z,1007.61
2018-11-25T09:04:59.573Z,1007.58
2018-11-25T09:05:59.570Z,1007.63
2018-11-25T09:06:59.534Z,1007.60
2018-11-25T09:07:59.511Z,1007.63
2018-11-25T09:08:59.492Z,1007.65
2018-11-25T09:09:59.471Z,1007.67
2018-11-25T09:10:59.463Z,1007.64
2018-11-25T09:11:59.418Z,1007.68
2018-11-25T09:12:59.413Z,1007.66
2018-11-25T09:13:59.380Z,1007.74
2018-11-25T09:14:59.365Z,1007.71
2018-11-25T09:15:59.356Z,1007.74
2018-11-25T09:16:59.331Z,1007.73
2018-11-25T09:17:59.313Z,1007.75
2018-11-25T09:18:59.307Z,1007.74
2018-11-25T09:19:59.263Z,1007.76
2018-11-25T09:20:59.230Z,1007.75
2018-11-25T09:21:59.882Z,1007.75
2018-11-25T09:22:59.202Z,1007.76
2018-11-25T09:23:59.170Z,1007.77
2018-11-25T09:24:59.146Z,1007.77
2018-11-25T09:25:59.125Z,1007.80
2018-11-25T09:26:59.101Z,1007.81
2018-11-25T09:27:59.089Z,1007.79
2018-11-25T09:28:59.076Z,1007.83
2018-11-25T09:29:59.033Z,1007.79
2018-11-25T09:30:59.013Z,1007.83
2018-11-25T09:31:58.992Z,1007.79
2018-11-25T09:32:58.972Z,1007.78
2018-11-25T09:33:58.971Z,1007.80
2018-11-25T09:34:58.980Z,1007.77
2018-11-25T09:35:58.910Z,1007.76
2018-11-25T09:36:58.892Z,1007.80
2018-11-25T09:37:58.881Z,1007.78
2018-11-25T09:38:58.867Z,1007.78
2018-11-25T09:39:58.854Z,1007.77
2018-11-25T09:40:59.265Z,1007.79
2018-11-25T09:41:58.807Z,1007.75
2018-11-25T09:42:58.762Z,1007.70
2018-11-25T09:43:58.768Z,1007.72
2018-11-25T09:44:58.716Z,1007.70
2018-11-25T09:45:58.695Z,1007.66
2018-11-25T09:46:58.673Z,1007.68
2018-11-25T09:47:58.646Z,1007.71
2018-11-25T09:48:58.632Z,1007.66
2018-11-25T09:49:58.628Z,1007.67
2018-11-25T09:50:58.589Z,1007.68
2018-11-25T09:51:58.572Z,1007.66
2018-11-25T09:52:58.689Z,1007.67
2018-11-25T09:53:58.545Z,1007.67
2018-11-25T09:54:58.513Z,1007.67
2018-11-25T09:55:58.508Z,1007.66
2018-11-25T09:56:58.460Z,1007.60
2018-11-25T09:57:58.440Z,1007.61
2018-11-25T09:58:58.427Z,1007.67
2018-11-25T09:59:58.407Z,1007.58
2018-11-25T10:00:58.411Z,1007.61
2018-11-25T10:01:58.364Z,1007.56
2018-11-25T10:02:58.337Z,1007.51
2018-11-25T10:03:58.310Z,1007.52
2018-11-25T10:04:58.303Z,1007.52
2018-11-25T10:05:58.287Z,1007.49
2018-11-25T10:06:58.251Z,1007.50
2018-11-25T10:07:58.224Z,1007.51
2018-11-25T10:08:58.201Z,1007.52
2018-11-25T10:09:58.181Z,1007.52
2018-11-25T10:10:58.181Z,1007.49
2018-11-25T10:11:58.142Z,1007.50
2018-11-25T10:12:58.129Z,1007.54
2018-11-25T10:13:58.097Z,1007.53
2018-11-25T10:14:58.078Z,1007.56
2018-11-25T10:15:58.079Z,1007.52
2018-11-25T10:16:58.034Z,1007.48
2018-11-25T10:17:59.754Z,1007.50
2018-11-25T10:18:58.014Z,1007.51
2018-11-25T10:19:57.970Z,1007.50
2018-11-25T10:20:57.972Z,1007.56
2018-11-25T10:21:57.930Z,1007.55
2018-11-25T10:22:57.912Z,1007.52
2018-11-25T10:23:57.887Z,1007.56
2018-11-25T10:24:57.940Z,1007.51
2018-11-25T10:25:57.866Z,1007.51
2018-11-25T10:26:57.842Z,1007.51
2018-11-25T10:27:57.822Z,1007.47
2018-11-25T10:28:57.782Z,1007.50
2018-11-25T10:29:57.761Z,1007.50
2018-11-25T10:30:57.755Z,1007.44
2018-11-25T10:31:57.742Z,1007.46
2018-11-25T10:32:57.709Z,1007.46
2018-11-25T10:33:57.689Z,1007.44
2018-11-25T10:34:57.653Z,1007.46
2018-11-25T10:35:57.642Z,1007.44
2018-11-25T10:36:57.667Z,1007.42
2018-11-25T10:37:57.621Z,1007.40
2018-11-25T10:38:57.590Z,1007.39
2018-11-25T10:39:57.555Z,1007.36
2018-11-25T10:40:57.528Z,1007.35
2018-11-25T10:41:57.508Z,1007.38
2018-11-25T10:42:57.496Z,1007.35
2018-11-25T10:43:57.480Z,1007.39
2018-11-25T10:44:57.442Z,1007.37
2018-11-25T10:45:57.426Z,1007.38
2018-11-25T10:46:57.397Z,1007.37
2018-11-25T10:47:57.378Z,1007.32
2018-11-25T10:48:57.406Z,1007.36
2018-11-25T10:49:57.335Z,1007.32
2018-11-25T10:50:57.317Z,1007.35
2018-11-25T10:51:57.303Z,1007.34
2018-11-25T10:52:57.280Z,1007.36
2018-11-25T10:53:57.264Z,1007.36
2018-11-25T10:54:57.234Z,1007.31
2018-11-25T10:55:57.207Z,1007.33
2018-11-25T10:56:57.197Z,1007.31
2018-11-25T10:57:57.168Z,1007.31
2018-11-25T10:58:57.166Z,1007.30
2018-11-25T10:59:57.150Z,1007.29
2018-11-25T11:00:57.102Z,1007.32
2018-11-25T11:01:57.105Z,1007.29
2018-11-25T11:02:57.063Z,1007.26
2018-11-25T11:03:57.067Z,1007.26
2018-11-25T11:04:57.042Z,1007.24
2018-11-25T11:05:57.025Z,1007.20
2018-11-25T11:06:56.979Z,1007.26
2018-11-25T11:07:56.953Z,1007.20
2018-11-25T11:08:56.932Z,1007.24
2018-11-25T11:09:56.911Z,1007.20
2018-11-25T11:10:56.909Z,1007.22
2018-11-25T11:11:56.877Z,1007.22
2018-11-25T11:12:56.851Z,1007.18
2018-11-25T11:13:56.863Z,1007.23
2018-11-25T11:14:56.813Z,1007.22
2018-11-25T11:15:56.807Z,1007.18
2018-11-25T11:16:56.758Z,1007.21
2018-11-25T11:17:56.764Z,1007.21
2018-11-25T11:18:56.721Z,1007.22
2018-11-25T11:19:56.698Z,1007.26
2018-11-25T11:20:56.698Z,1007.22
2018-11-25T11:21:56.688Z,1007.23
2018-11-25T11:22:56.639Z,1007.26
2018-11-25T11:23:56.617Z,1007.21
2018-11-25T11:24:56.593Z,1007.25
2018-11-25T11:25:56.589Z,1007.24
2018-11-25T11:26:56.571Z,1007.24
2018-11-25T11:27:56.543Z,1007.28
2018-11-25T11:28:56.524Z,1007.23
2018-11-25T11:29:56.495Z,1007.28
2018-11-25T11:30:56.475Z,1007.24
2018-11-25T11:31:56.467Z,1007.24
2018-11-25T11:32:56.451Z,1007.25
2018-11-25T11:33:56.406Z,1007.25
2018-11-25T11:34:56.385Z,1007.24
2018-11-25T11:35:56.361Z,1007.29
2018-11-25T11:36:56.351Z,1007.29
2018-11-25T11:37:56.319Z,1007.28
2018-11-25T11:38:56.338Z,1007.29
2018-11-25T11:39:56.286Z,1007.30
2018-11-25T11:40:56.261Z,1007.27
2018-11-25T11:41:56.240Z,1007.25
2018-11-25T11:42:56.229Z,1007.23
2018-11-25T11:43:56.231Z,1007.25
2018-11-25T11:44:56.176Z,1007.27
2018-11-25T11:45:56.155Z,1007.31
2018-11-25T11:46:56.138Z,1007.33
2018-11-25T11:47:56.109Z,1007.28
2018-11-25T11:48:56.099Z,1007.30
2018-11-25T11:49:56.085Z,1007.31
2018-11-25T11:50:56.066Z,1007.29
2018-11-25T11:51:56.071Z,1007.27
2018-11-25T11:52:56.017Z,1007.29
2018-11-25T11:53:56.017Z,1007.27
2018-11-25T11:54:55.970Z,1007.26
2018-11-25T11:55:55.949Z,1007.25
2018-11-25T11:56:55.922Z,1007.26
2018-11-25T11:57:55.903Z,1007.22
2018-11-25T11:58:55.895Z,1007.29
2018-11-25T11:59:55.881Z,1007.23
2018-11-25T12:00:55.853Z,1007.27
2018-11-25T12:01:55.822Z,1007.24
2018-11-25T12:02:55.793Z,1007.27
2018-11-25T12:03:55.790Z,1007.27
2018-11-25T12:04:55.751Z,1007.26